Time;durP1;ratioP1;P1;durP2;ratioP2;P2;SDS_P1;SDS_P2;PMS_P1;PMS_P2;Temp;Humidity;BMP_temperature;BMP_pressure;BME280_temperature;BME280_humidity;BME280_pressure;Samples;Min_cycle;Max_cycle;Signal;HPM_P1;HPM_P2
2021/01/30 00:02:00;;;;;;;8.50;4.88;;;23.10;45.10;;;;;;5038153;28;45415;-52
2021/01/30 00:04:25;;;;;;;7.05;5.25;;;23.10;45.10;;;;;;5040077;28;45620;-53
2021/01/30 00:06:52;;;;;;;7.07;4.63;;;23.10;45.10;;;;;;5037890;28;45449;-54
2021/01/30 00:09:19;;;;;;;7.38;4.93;;;23.10;45.10;;;;;;5035753;28;45564;-53
2021/01/30 00:11:52;;;;;;;6.40;4.32;;;23.00;45.10;;;;;;5042453;28;45364;-55
2021/01/30 00:14:24;;;;;;;8.93;4.65;;;23.10;45.10;;;;;;5039177;28;45602;-53
2021/01/30 00:16:50;;;;;;;9.07;4.93;;;23.10;45.10;;;;;;5036731;28;46555;-53
2021/01/30 00:19:16;;;;;;;7.38;4.47;;;23.00;45.00;;;;;;5038651;28;45428;-53
2021/01/30 00:21:42;;;;;;;7.80;4.55;;;23.00;45.10;;;;;;5038621;28;45367;-53
2021/01/30 00:24:07;;;;;;;8.00;4.72;;;23.00;45.10;;;;;;5034980;28;45238;-53
2021/01/30 00:26:33;;;;;;;6.00;4.00;;;22.90;45.10;;;;;;5040430;28;46475;-53
2021/01/30 00:28:59;;;;;;;6.43;4.57;;;22.90;45.10;;;;;;5037457;28;45700;-53
2021/01/30 00:31:25;;;;;;;6.18;4.35;;;22.90;45.10;;;;;;5033155;28;45539;-53
2021/01/30 00:33:50;;;;;;;5.65;4.10;;;22.90;45.10;;;;;;5015286;28;45788;-53
2021/01/30 00:36:16;;;;;;;6.68;5.05;;;22.90;45.10;;;;;;5039319;28;46107;-53
2021/01/30 00:38:42;;;;;;;7.55;4.43;;;22.90;45.10;;;;;;5031806;28;45464;-52
2021/01/30 00:41:07;;;;;;;5.90;4.40;;;22.90;45.10;;;;;;5037674;28;45521;-53
2021/01/30 00:43:33;;;;;;;5.93;4.10;;;22.90;45.10;;;;;;5016372;28;45644;-53
2021/01/30 00:45:59;;;;;;;5.82;4.20;;;22.90;45.10;;;;;;5033463;28;45297;-53
2021/01/30 00:48:24;;;;;;;5.55;4.38;;;22.90;45.10;;;;;;5028678;28;45388;-53
2021/01/30 00:50:50;;;;;;;7.07;4.32;;;22.90;45.10;;;;;;5029507;28;45484;-53
2021/01/30 00:53:16;;;;;;;6.78;4.25;;;22.80;45.10;;;;;;5029587;28;45459;-53
2021/01/30 00:55:41;;;;;;;6.00;3.95;;;22.80;45.30;;;;;;5028810;28;45242;-53
2021/01/30 00:58:07;;;;;;;5.50;3.70;;;22.80;45.10;;;;;;5029223;28;45494;-53
2021/01/30 01:00:33;;;;;;;6.35;4.15;;;22.80;45.10;;;;;;5025499;28;45365;-54
2021/01/30 01:02:58;;;;;;;6.80;4.20;;;22.80;45.10;;;;;;5013912;28;45609;-53
2021/01/30 01:05:25;;;;;;;5.90;4.43;;;22.80;45.10;;;;;;5011888;28;46096;-53
2021/01/30 01:07:50;;;;;;;4.85;3.67;;;22.80;45.10;;;;;;5022773;28;45477;-53
2021/01/30 01:10:18;;;;;;;5.05;3.67;;;22.80;45.10;;;;;;5025457;28;45566;-53
2021/01/30 01:12:44;;;;;;;5.25;3.90;;;22.80;45.10;;;;;;5022415;28;45404;-53
2021/01/30 01:15:10;;;;;;;5.70;3.92;;;22.80;45.20;;;;;;4989317;28;45406;-54
2021/01/30 01:17:36;;;;;;;6.05;3.70;;;22.80;45.10;;;;;;4989058;28;45406;-52
2021/01/30 01:20:02;;;;;;;6.55;3.65;;;22.80;45.10;;;;;;4989551;28;45339;-53
2021/01/30 01:22:28;;;;;;;5.82;3.72;;;22.80;45.20;;;;;;4989769;28;45544;-53
2021/01/30 01:24:54;;;;;;;6.28;3.97;;;22.70;45.20;;;;;;5006340;28;45459;-53
2021/01/30 01:27:19;;;;;;;6.10;4.18;;;22.70;45.20;;;;;;4988979;28;45164;-53
2021/01/30 01:29:45;;;;;;;5.78;3.67;;;22.70;45.20;;;;;;4993841;28;45263;-53
2021/01/30 01:32:11;;;;;;;8.75;4.45;;;22.70;45.20;;;;;;5006108;28;45258;-53
2021/01/30 01:34:36;;;;;;;5.88;4.22;;;22.70;45.10;;;;;;5021709;28;46347;-53
2021/01/30 01:37:03;;;;;;;5.10;3.70;;;22.70;45.20;;;;;;5007411;28;45420;-53
2021/01/30 01:39:33;;;;;;;5.40;3.72;;;22.70;45.20;;;;;;5024123;28;45352;-53
2021/01/30 01:42:20;;;;;;;9.73;3.92;;;22.60;45.10;;;;;;5023630;28;45493;-52
2021/01/30 01:44:45;;;;;;;5.18;3.72;;;22.70;45.10;;;;;;5008005;28;45321;-52
2021/01/30 01:47:25;;;;;;;5.97;3.10;;;22.70;45.20;;;;;;5005662;28;45312;-53
2021/01/30 01:49:51;;;;;;;5.03;3.55;;;22.70;45.20;;;;;;5005539;28;45389;-53
2021/01/30 01:52:25;;;;;;;6.15;3.47;;;22.60;45.10;;;;;;5006064;28;45189;-54
2021/01/30 01:55:04;;;;;;;5.45;3.40;;;22.70;45.10;;;;;;5005374;28;45461;-54
2021/01/30 01:57:30;;;;;;;5.03;3.22;;;22.60;45.10;;;;;;5005449;28;45267;-53
2021/01/30 01:59:56;;;;;;;5.18;3.45;;;22.60;45.10;;;;;;5004633;28;45452;-53
2021/01/30 02:02:24;;;;;;;5.80;3.65;;;22.60;45.10;;;;;;5005513;28;45371;-52
2021/01/30 02:05:00;;;;;;;4.68;3.10;;;22.60;45.10;;;;;;5005353;28;46126;-53
2021/01/30 02:07:27;;;;;;;5.78;3.63;;;22.60;45.10;;;;;;5016579;28;45373;-53
2021/01/30 02:09:54;;;;;;;5.70;3.38;;;22.60;45.10;;;;;;4992415;28;45295;-53
2021/01/30 02:12:22;;;;;;;4.93;3.45;;;22.60;45.10;;;;;;5009049;28;45235;-54
2021/01/30 02:14:47;;;;;;;4.97;3.22;;;22.60;45.10;;;;;;4992215;28;46147;-54
2021/01/30 02:17:34;;;;;;;4.55;3.28;;;22.60;45.10;;;;;;4992022;28;45382;-53
2021/01/30 02:20:30;;;;;;;4.80;3.30;;;22.60;45.10;;;;;;5008616;28;45364;-53
2021/01/30 02:23:20;;;;;;;5.47;3.83;;;22.60;45.10;;;;;;5010014;28;45345;-53
2021/01/30 02:25:58;;;;;;;4.63;2.92;;;22.60;45.10;;;;;;4994401;28;45930;-53
2021/01/30 02:28:27;;;;;;;5.20;3.10;;;22.50;45.10;;;;;;5009496;28;45268;-53
2021/01/30 02:30:52;;;;;;;4.30;3.20;;;22.50;45.10;;;;;;5008131;28;45474;-53
2021/01/30 02:33:39;;;;;;;5.35;3.35;;;22.50;45.10;;;;;;5010120;28;45634;-53
2021/01/30 02:36:20;;;;;;;4.97;3.25;;;22.50;45.10;;;;;;5009460;28;45393;-53
2021/01/30 02:38:56;;;;;;;4.18;2.95;;;22.50;45.20;;;;;;5009241;28;45299;-53
2021/01/30 02:41:26;;;;;;;4.53;3.20;;;22.50;45.10;;;;;;5008274;28;45299;-53
2021/01/30 02:43:53;;;;;;;4.00;3.00;;;22.50;45.10;;;;;;5002073;28;45377;-53
2021/01/30 02:46:24;;;;;;;4.30;3.00;;;22.50;45.10;;;;;;5026996;28;45388;-53
2021/01/30 02:48:51;;;;;;;4.72;3.88;;;22.50;45.20;;;;;;5027830;28;45316;-53
2021/01/30 02:51:22;;;;;;;4.43;3.05;;;22.50;45.10;;;;;;5027877;28;45471;-53
2021/01/30 02:53:52;;;;;;;5.10;2.65;;;22.50;45.10;;;;;;5028314;28;45293;-53
2021/01/30 02:56:19;;;;;;;5.07;3.20;;;22.50;45.10;;;;;;5027296;28;46235;-53
2021/01/30 02:58:51;;;;;;;4.50;2.80;;;22.50;45.10;;;;;;5027728;28;45470;-52
2021/01/30 03:01:17;;;;;;;4.57;2.88;;;22.40;45.10;;;;;;5027109;28;45241;-53
2021/01/30 03:03:43;;;;;;;4.53;2.63;;;22.50;45.10;;;;;;5009602;28;45365;-53
2021/01/30 03:06:37;;;;;;;3.95;2.80;;;22.40;45.00;;;;;;5007630;28;46227;-53
2021/01/30 03:09:28;;;;;;;4.13;2.67;;;22.50;45.10;;;;;;5007847;28;45376;-53
2021/01/30 03:12:08;;;;;;;4.15;2.42;;;22.50;45.10;;;;;;5019289;28;45304;-53
2021/01/30 03:14:37;;;;;;;5.68;2.88;;;22.50;45.00;;;;;;5009450;28;45520;-53
2021/01/30 03:17:03;;;;;;;3.60;2.53;;;22.60;45.10;;;;;;5007510;28;45442;-53
2021/01/30 03:19:30;;;;;;;4.75;2.95;;;22.60;45.00;;;;;;5007461;28;45353;-53
2021/01/30 03:22:16;;;;;;;4.60;2.60;;;22.60;44.90;;;;;;5024055;28;45294;-53
2021/01/30 03:24:46;;;;;;;4.47;2.53;;;22.60;44.90;;;;;;5007742;28;45370;-53
2021/01/30 03:27:28;;;;;;;3.72;2.65;;;22.60;44.80;;;;;;5007045;28;45272;-53
2021/01/30 03:29:55;;;;;;;4.05;2.70;;;22.70;44.80;;;;;;5008636;28;45289;-53
2021/01/30 03:32:20;;;;;;;4.07;2.80;;;22.70;44.60;;;;;;5007498;28;45334;-53
2021/01/30 03:34:47;;;;;;;4.45;3.03;;;22.80;44.60;;;;;;5007609;28;45434;-53
2021/01/30 03:37:13;;;;;;;4.68;2.78;;;22.80;44.60;;;;;;5023557;28;45759;-54
2021/01/30 03:39:38;;;;;;;4.95;2.63;;;22.90;44.60;;;;;;5007159;28;45234;-53
2021/01/30 03:42:04;;;;;;;3.47;2.40;;;22.90;44.60;;;;;;5007129;28;45339;-53
2021/01/30 03:44:31;;;;;;;4.35;2.58;;;22.90;44.50;;;;;;5011070;28;45687;-53
2021/01/30 03:46:57;;;;;;;3.65;2.40;;;22.90;44.50;;;;;;5027026;28;45724;-53
2021/01/30 03:49:23;;;;;;;3.85;2.40;;;22.90;44.40;;;;;;5026811;28;45324;-53
2021/01/30 03:51:49;;;;;;;4.18;2.53;;;23.00;44.30;;;;;;5026581;28;45405;-53
2021/01/30 03:54:14;;;;;;;4.30;2.47;;;23.00;44.30;;;;;;5027502;28;45286;-53
2021/01/30 03:56:44;;;;;;;5.18;2.80;;;23.10;44.30;;;;;;5026653;28;45347;-55
2021/01/30 03:59:10;;;;;;;4.60;2.72;;;23.10;44.30;;;;;;5026458;28;45306;-53
2021/01/30 04:01:36;;;;;;;4.07;2.60;;;23.10;44.30;;;;;;5025442;28;45441;-53
2021/01/30 04:04:01;;;;;;;4.05;2.30;;;23.10;44.30;;;;;;5027068;28;45213;-53
2021/01/30 04:06:27;;;;;;;4.57;2.78;;;23.10;44.20;;;;;;5003151;28;46727;-53
2021/01/30 04:08:53;;;;;;;3.80;2.13;;;23.10;44.20;;;;;;4990496;28;45363;-54
2021/01/30 04:11:26;;;;;;;4.28;2.60;;;23.20;44.10;;;;;;4990268;28;45351;-53
2021/01/30 04:13:52;;;;;;;3.20;2.10;;;23.20;44.00;;;;;;5007223;28;45551;-53
2021/01/30 04:16:18;;;;;;;4.15;2.75;;;23.20;44.00;;;;;;5006108;28;45339;-53
2021/01/30 04:18:43;;;;;;;3.45;2.45;;;23.30;44.10;;;;;;4990296;28;45304;-53
2021/01/30 04:21:09;;;;;;;3.70;2.10;;;23.20;44.00;;;;;;5006659;28;45787;-52
2021/01/30 04:23:35;;;;;;;5.75;3.03;;;23.30;44.00;;;;;;4990479;28;45528;-54
2021/01/30 04:26:00;;;;;;;3.17;2.03;;;23.30;44.00;;;;;;4990089;28;45342;-54
2021/01/30 04:28:26;;;;;;;3.30;2.20;;;23.30;44.00;;;;;;4990100;28;45418;-52
2021/01/30 04:30:52;;;;;;;3.72;2.20;;;23.40;43.90;;;;;;4989479;28;45236;-53
2021/01/30 04:33:18;;;;;;;4.28;2.25;;;23.30;43.80;;;;;;4990571;28;45378;-52
2021/01/30 04:35:43;;;;;;;3.22;2.00;;;23.40;43.80;;;;;;4989870;28;45297;-53
2021/01/30 04:38:09;;;;;;;3.63;2.38;;;23.40;43.80;;;;;;4990051;28;45310;-52
2021/01/30 04:40:37;;;;;;;3.42;2.03;;;23.40;43.80;;;;;;4989757;28;45279;-54
2021/01/30 04:43:11;;;;;;;3.22;2.13;;;23.40;43.80;;;;;;5010508;28;45407;-52
2021/01/30 04:45:51;;;;;;;4.22;2.20;;;23.40;43.70;;;;;;5027443;28;45435;-52
2021/01/30 04:48:26;;;;;;;3.75;2.30;;;23.40;43.80;;;;;;5027075;28;45309;-54
2021/01/30 04:51:24;;;;;;;3.75;1.95;;;23.40;43.70;;;;;;5026137;28;45415;-52
2021/01/30 04:54:07;;;;;;;4.03;2.05;;;23.50;43.60;;;;;;5026166;28;45389;-51
2021/01/30 04:56:38;;;;;;;3.80;1.73;;;23.50;43.60;;;;;;5025741;28;45411;-54
2021/01/30 04:59:09;;;;;;;3.90;2.50;;;23.50;43.60;;;;;;5027016;28;45350;-52
2021/01/30 05:01:47;;;;;;;3.10;1.73;;;23.50;43.60;;;;;;5044586;28;45400;-52
2021/01/30 05:04:25;;;;;;;4.43;2.40;;;23.50;43.60;;;;;;5027327;28;45501;-53
2021/01/30 05:07:12;;;;;;;3.92;2.15;;;23.50;43.60;;;;;;5025407;28;45322;-52
2021/01/30 05:09:47;;;;;;;4.82;2.28;;;23.40;43.60;;;;;;5027039;28;45183;-53
2021/01/30 05:12:22;;;;;;;4.47;2.40;;;23.50;43.70;;;;;;5033413;28;45429;-51
2021/01/30 05:14:56;;;;;;;5.47;2.30;;;23.50;43.70;;;;;;5019910;28;45280;-52
2021/01/30 05:17:33;;;;;;;5.90;2.22;;;23.50;43.70;;;;;;5032372;28;45421;-52
2021/01/30 05:20:04;;;;;;;4.90;1.88;;;23.50;43.50;;;;;;4971283;28;45484;-53
2021/01/30 05:22:41;;;;;;;5.38;2.65;;;23.50;43.50;;;;;;4957317;28;45457;-52
2021/01/30 05:25:09;;;;;;;4.95;2.05;;;23.60;43.50;;;;;;4958101;28;45376;-52
2021/01/30 05:28:28;;;;;;;3.22;1.92;;;23.60;43.50;;;;;;4944793;28;45559;-52
2021/01/30 05:30:58;;;;;;;3.72;2.00;;;23.60;43.40;;;;;;4936708;28;46003;-52
2021/01/30 05:33:52;;;;;;;3.05;1.95;;;23.60;43.90;;;;;;4950975;28;45520;-52
2021/01/30 05:36:25;;;;;;;3.20;1.63;;;23.70;43.40;;;;;;4954248;28;45665;-52
2021/01/30 05:39:09;;;;;;;3.55;1.90;;;23.70;43.40;;;;;;4959827;28;46167;-52
2021/01/30 05:41:55;;;;;;;3.72;2.22;;;23.70;43.30;;;;;;4959472;28;45465;-52
2021/01/30 05:44:38;;;;;;;3.63;1.55;;;23.70;43.30;;;;;;4979670;28;45662;-52
2021/01/30 05:47:04;;;;;;;2.90;1.80;;;23.80;43.30;;;;;;4978896;28;45460;-52
2021/01/30 05:49:32;;;;;;;4.05;1.98;;;23.80;43.30;;;;;;4960246;28;46145;-52
2021/01/30 05:52:04;;;;;;;3.17;1.80;;;23.80;43.20;;;;;;5002077;28;45287;-52
2021/01/30 05:54:30;;;;;;;7.50;2.17;;;23.90;43.20;;;;;;5020238;28;45424;-53
2021/01/30 05:56:55;;;;;;;3.95;1.73;;;23.90;43.20;;;;;;5022336;28;45684;-53
2021/01/30 05:59:26;;;;;;;3.60;2.13;;;23.90;43.10;;;;;;5019372;28;46307;-52
2021/01/30 06:02:15;;;;;;;5.63;2.15;;;24.00;43.10;;;;;;5020882;28;45366;-52
2021/01/30 06:04:41;;;;;;;3.38;1.52;;;24.00;43.00;;;;;;5037983;28;45311;-52
2021/01/30 06:07:17;;;;;;;3.50;1.77;;;24.00;43.00;;;;;;5021543;28;45715;-52
2021/01/30 06:09:43;;;;;;;3.03;1.92;;;24.00;43.00;;;;;;5022256;28;45447;-52
2021/01/30 06:12:26;;;;;;;3.00;1.60;;;24.10;43.00;;;;;;5021031;28;45344;-53
2021/01/30 06:15:12;;;;;;;3.97;2.45;;;24.10;43.00;;;;;;5039120;28;45587;-54
2021/01/30 06:17:38;;;;;;;3.00;1.80;;;24.10;42.90;;;;;;5024696;28;45233;-52
2021/01/30 06:20:04;;;;;;;3.25;1.73;;;24.10;42.90;;;;;;5019781;28;46280;-52
2021/01/30 06:22:30;;;;;;;3.00;1.65;;;24.10;42.90;;;;;;5037017;28;45405;-52
2021/01/30 06:24:55;;;;;;;3.45;1.75;;;24.20;42.90;;;;;;5019247;28;45378;-52
2021/01/30 06:27:40;;;;;;;3.60;1.98;;;24.20;42.80;;;;;;5021210;28;45364;-52
2021/01/30 06:30:14;;;;;;;4.07;2.00;;;24.30;42.90;;;;;;5020229;28;45620;-52
2021/01/30 06:32:47;;;;;;;3.10;1.65;;;24.30;42.80;;;;;;5019522;28;45341;-52
2021/01/30 06:35:19;;;;;;;3.63;1.85;;;24.30;42.80;;;;;;5019323;28;45666;-52
2021/01/30 06:38:06;;;;;;;4.85;1.92;;;24.30;42.80;;;;;;5038209;28;45308;-52
2021/01/30 06:40:36;;;;;;;2.97;1.67;;;24.30;42.70;;;;;;5020482;28;46358;-54
2021/01/30 06:43:15;;;;;;;3.35;1.73;;;24.30;42.80;;;;;;5021040;28;45479;-52
2021/01/30 06:45:43;;;;;;;6.53;3.08;;;24.30;43.30;;;;;;5021039;28;45357;-52
2021/01/30 06:48:33;;;;;;;8.68;4.13;;;24.30;42.70;;;;;;5020679;28;45515;-53
2021/01/30 06:50:59;;;;;;;12.05;5.85;;;24.40;42.70;;;;;;5022165;28;46247;-52
2021/01/30 06:53:31;;;;;;;10.48;5.20;;;24.40;42.70;;;;;;5019275;28;45432;-52
2021/01/30 06:56:16;;;;;;;11.90;5.82;;;24.40;42.70;;;;;;5034948;28;45553;-52
2021/01/30 06:58:45;;;;;;;20.38;8.52;;;24.40;42.60;;;;;;5020991;28;45460;-51
2021/01/30 07:01:20;;;;;;;20.83;9.25;;;24.40;42.60;;;;;;5015112;28;45676;-52
2021/01/30 07:04:03;;;;;;;24.52;9.30;;;24.40;42.60;;;;;;5030074;28;45359;-53
2021/01/30 07:06:32;;;;;;;26.90;12.10;;;24.40;42.60;;;;;;5046942;28;45432;-53
2021/01/30 07:09:16;;;;;;;27.25;14.25;;;24.40;42.70;;;;;;5049353;28;45487;-54
2021/01/30 07:11:53;;;;;;;36.03;17.13;;;24.30;42.60;;;;;;5048717;28;46551;-55
2021/01/30 07:14:33;;;;;;;34.20;15.63;;;24.30;42.70;;;;;;5047653;28;45351;-55
2021/01/30 07:17:08;;;;;;;35.72;18.38;;;24.30;42.80;;;;;;5048787;28;45275;-54
2021/01/30 07:19:59;;;;;;;47.55;20.30;;;24.30;42.70;;;;;;5049108;28;45303;-52
2021/01/30 07:22:42;;;;;;;43.25;21.52;;;24.40;42.70;;;;;;5033232;28;45428;-53
2021/01/30 07:25:20;;;;;;;36.95;18.90;;;24.40;42.70;;;;;;5033098;28;45132;-53
2021/01/30 07:27:49;;;;;;;41.15;20.83;;;24.40;42.80;;;;;;5048612;28;45356;-52
2021/01/30 07:30:34;;;;;;;49.65;21.33;;;24.40;42.80;;;;;;5022729;28;45591;-51
2021/01/30 07:33:04;;;;;;;43.40;20.30;;;24.40;42.80;;;;;;5018994;28;45392;-51
2021/01/30 07:36:04;;;;;;;50.67;21.70;;;24.40;42.80;;;;;;5019939;28;45328;-52
2021/01/30 07:38:50;;;;;;;44.58;22.40;;;24.40;42.80;;;;;;5007614;28;45508;-52
2021/01/30 07:41:48;;;;;;;48.75;21.58;;;24.40;42.80;;;;;;5021125;28;45342;-52
2021/01/30 07:44:30;;;;;;;38.70;20.98;;;24.50;42.90;;;;;;4999317;28;46560;-52
2021/01/30 07:47:12;;;;;;;38.50;21.67;;;24.50;42.90;;;;;;5018762;28;45489;-50
2021/01/30 07:49:39;;;;;;;58.88;26.38;;;24.50;43.80;;;;;;5019770;28;45336;-51
2021/01/30 07:52:07;;;;;;;119.18;53.38;;;24.50;43.10;;;;;;5018487;28;45630;-51
2021/01/30 07:54:34;;;;;;;83.95;34.35;;;24.40;43.80;;;;;;5019694;28;45543;-51
2021/01/30 07:57:18;;;;;;;48.22;23.83;;;24.30;42.10;;;;;;5018921;28;45470;-51
2021/01/30 08:00:15;;;;;;;51.53;25.52;;;24.20;39.60;;;;;;5037111;28;45375;-52
2021/01/30 08:02:43;;;;;;;52.85;24.27;;;24.10;38.90;;;;;;5039804;28;45466;-50
2021/01/30 08:05:24;;;;;;;41.72;23.45;;;24.00;40.90;;;;;;5046991;28;45797;-51
2021/01/30 08:07:56;;;;;;;72.28;33.72;;;24.00;39.90;;;;;;5047793;28;45261;-51
2021/01/30 08:10:51;;;;;;;78.90;31.23;;;24.00;41.10;;;;;;5046792;28;45218;-51
2021/01/30 08:13:17;;;;;;;62.90;27.25;;;23.90;41.20;;;;;;5048483;28;45649;-50
2021/01/30 08:15:57;;;;;;;56.83;25.40;;;23.80;41.30;;;;;;5047489;28;45293;-51
2021/01/30 08:18:44;;;;;;;44.05;19.27;;;23.70;41.20;;;;;;5046452;28;45375;-52
2021/01/30 08:21:27;;;;;;;39.42;17.33;;;23.70;41.60;;;;;;5027794;28;45621;-52
2021/01/30 08:23:59;;;;;;;47.40;22.33;;;23.70;41.80;;;;;;5047012;28;45661;-52
2021/01/30 08:26:37;;;;;;;47.25;22.88;;;23.80;42.10;;;;;;5029286;28;46164;-52
2021/01/30 08:29:29;;;;;;;51.50;24.27;;;23.90;42.20;;;;;;5027484;28;45681;-52
2021/01/30 08:32:00;;;;;;;51.75;24.55;;;23.90;42.30;;;;;;5044947;28;45289;-53
2021/01/30 08:34:29;;;;;;;50.75;26.63;;;23.90;42.50;;;;;;5010953;28;45718;-53
2021/01/30 08:36:56;;;;;;;63.17;30.45;;;23.90;42.60;;;;;;5045860;28;45350;-53
2021/01/30 08:39:32;;;;;;;62.75;30.38;;;23.90;42.80;;;;;;5028676;28;45412;-51
2021/01/30 08:42:18;;;;;;;64.13;29.70;;;23.90;42.90;;;;;;5028036;28;45470;-53
2021/01/30 08:44:54;;;;;;;57.10;27.33;;;23.90;43.00;;;;;;5015208;28;46081;-51
2021/01/30 08:47:31;;;;;;;53.17;28.55;;;24.00;43.50;;;;;;5051038;28;46464;-51
2021/01/30 08:50:03;;;;;;;60.40;30.88;;;23.90;43.60;;;;;;5019258;28;45520;-51
2021/01/30 08:52:46;;;;;;;52.63;27.38;;;23.90;43.60;;;;;;5061309;28;45455;-52
2021/01/30 08:55:50;;;;;;;41.30;22.65;;;23.90;43.90;;;;;;5033752;28;45235;-52
2021/01/30 08:58:36;;;;;;;39.40;20.77;;;23.70;43.00;;;;;;5047331;28;46303;-55
2021/01/30 09:01:20;;;;;;;39.85;17.10;;;23.70;42.40;;;;;;5057881;28;45415;-54
2021/01/30 09:04:05;;;;;;;25.88;13.80;;;23.50;41.80;;;;;;5050667;28;45502;-55
2021/01/30 09:06:39;;;;;;;19.88;11.98;;;23.30;41.00;;;;;;5000394;28;45454;-56
2021/01/30 09:09:17;;;;;;;19.25;11.05;;;23.10;39.70;;;;;;4999450;28;45858;-54
2021/01/30 09:11:44;;;;;;;15.20;8.85;;;23.10;39.60;;;;;;4986693;28;45832;-54
2021/01/30 09:14:10;;;;;;;11.93;7.50;;;22.90;38.30;;;;;;4987370;28;45807;-54
2021/01/30 09:16:54;;;;;;;11.93;7.80;;;22.70;38.00;;;;;;5004371;28;45439;-54
2021/01/30 09:19:28;;;;;;;10.75;6.65;;;22.70;37.40;;;;;;4991300;28;45614;-53
2021/01/30 09:22:26;;;;;;;10.27;6.90;;;22.80;38.10;;;;;;5005858;28;45313;-52
2021/01/30 09:25:09;;;;;;;13.73;7.90;;;22.80;37.10;;;;;;5002604;28;45864;-51
2021/01/30 09:27:44;;;;;;;11.93;7.35;;;22.80;38.80;;;;;;5005495;28;46890;-51
2021/01/30 09:30:18;;;;;;;10.45;6.18;;;23.00;39.50;;;;;;4991223;28;46249;-51
2021/01/30 09:32:46;;;;;;;11.10;6.28;;;23.10;39.70;;;;;;5006743;28;45405;-51
2021/01/30 09:35:17;;;;;;;13.85;6.82;;;23.20;39.80;;;;;;5006971;28;45552;-52
2021/01/30 09:37:45;;;;;;;13.18;7.30;;;23.30;40.10;;;;;;5028210;28;45439;-52
2021/01/30 09:40:31;;;;;;;10.88;7.05;;;23.30;40.30;;;;;;5045273;28;45791;-51
2021/01/30 09:43:08;;;;;;;15.75;7.35;;;23.40;41.10;;;;;;5043031;28;45503;-53
2021/01/30 09:45:34;;;;;;;9.38;6.15;;;23.40;40.60;;;;;;5035258;28;45734;-52
2021/01/30 09:48:04;;;;;;;10.95;6.68;;;23.40;40.70;;;;;;5041748;28;45526;-53
2021/01/30 09:50:34;;;;;;;16.20;8.13;;;23.40;40.80;;;;;;5050530;28;47053;-50
2021/01/30 09:53:10;;;;;;;11.50;7.10;;;23.50;40.90;;;;;;5037847;28;45420;-54
2021/01/30 09:55:36;;;;;;;10.10;6.78;;;23.50;41.00;;;;;;5041202;28;45315;-53
2021/01/30 09:58:13;;;;;;;12.27;6.88;;;23.50;41.10;;;;;;5036245;28;45669;-52
2021/01/30 10:00:43;;;;;;;12.98;8.35;;;23.50;41.20;;;;;;5036226;28;45520;-53
2021/01/30 10:03:18;;;;;;;10.13;7.07;;;23.50;41.30;;;;;;5039441;28;45393;-54
2021/01/30 10:05:44;;;;;;;11.27;6.72;;;23.60;41.40;;;;;;5039484;28;45436;-52
2021/01/30 10:08:31;;;;;;;11.70;6.57;;;23.60;41.40;;;;;;5037051;28;45529;-52
2021/01/30 10:11:17;;;;;;;12.63;7.78;;;23.70;41.70;;;;;;5051315;28;46548;-52
2021/01/30 10:14:01;;;;;;;9.52;6.60;;;23.80;41.70;;;;;;5034962;28;45576;-52
2021/01/30 10:16:27;;;;;;;9.15;5.95;;;23.80;41.80;;;;;;4993575;28;45299;-53
2021/01/30 10:19:00;;;;;;;10.98;7.13;;;23.80;41.80;;;;;;4991604;28;45618;-54
2021/01/30 10:21:34;;;;;;;14.00;6.80;;;23.90;42.00;;;;;;5009110;28;45472;-53
2021/01/30 10:24:16;;;;;;;11.05;7.55;;;23.90;42.00;;;;;;4992111;28;45439;-53
2021/01/30 10:26:42;;;;;;;13.07;7.47;;;23.90;42.20;;;;;;5008937;28;45884;-54
2021/01/30 10:29:13;;;;;;;12.48;6.72;;;23.90;42.20;;;;;;5007288;28;45465;-53
2021/01/30 10:31:44;;;;;;;16.88;8.85;;;23.90;42.50;;;;;;4993410;28;46220;-52
2021/01/30 10:34:10;;;;;;;14.15;7.45;;;23.90;42.60;;;;;;5007069;28;45353;-52
2021/01/30 10:36:36;;;;;;;18.52;8.50;;;23.80;42.60;;;;;;5005879;28;45405;-50
2021/01/30 10:39:02;;;;;;;10.15;6.57;;;23.80;42.70;;;;;;5010625;28;45461;-56
2021/01/30 10:41:28;;;;;;;11.93;6.88;;;23.90;42.70;;;;;;4999328;28;46307;-54
2021/01/30 10:44:04;;;;;;;10.05;6.78;;;23.90;42.80;;;;;;4978446;28;45446;-55
2021/01/30 10:46:39;;;;;;;10.75;7.03;;;24.00;42.90;;;;;;4993673;28;45432;-55
2021/01/30 10:49:31;;;;;;;10.73;7.20;;;24.00;43.00;;;;;;5017014;28;45391;-55
2021/01/30 10:52:11;;;;;;;12.30;8.07;;;24.00;43.10;;;;;;5031121;28;46526;-55
2021/01/30 10:54:38;;;;;;;11.70;7.38;;;24.00;43.20;;;;;;5032382;28;45340;-55
2021/01/30 10:57:12;;;;;;;11.07;6.97;;;24.00;43.00;;;;;;4985631;28;45310;-55
2021/01/30 10:59:56;;;;;;;11.13;6.60;;;24.00;42.90;;;;;;4982214;28;45461;-55
2021/01/30 11:02:35;;;;;;;10.50;7.22;;;24.00;42.90;;;;;;4985541;28;45683;-55
2021/01/30 11:05:01;;;;;;;10.20;5.57;;;24.00;43.00;;;;;;4984355;28;45430;-55
2021/01/30 11:07:39;;;;;;;12.73;7.45;;;24.00;43.00;;;;;;4993773;28;46495;-55
2021/01/30 11:10:06;;;;;;;10.07;6.60;;;24.00;43.10;;;;;;4977452;28;45558;-55
2021/01/30 11:12:31;;;;;;;12.48;6.80;;;23.90;43.10;;;;;;4969831;28;46274;-55
2021/01/30 11:15:17;;;;;;;10.27;6.75;;;23.90;43.20;;;;;;4972907;28;45250;-55
2021/01/30 11:17:43;;;;;;;10.60;5.90;;;23.90;43.50;;;;;;4972303;28;45761;-55
2021/01/30 11:20:10;;;;;;;10.27;6.65;;;23.90;43.40;;;;;;4970852;28;45796;-55
2021/01/30 11:22:36;;;;;;;12.02;7.22;;;23.80;43.60;;;;;;4968524;28;45540;-55
2021/01/30 11:25:07;;;;;;;13.35;7.43;;;23.80;43.90;;;;;;4973798;28;46038;-55
2021/01/30 11:27:33;;;;;;;10.05;6.68;;;23.80;44.30;;;;;;5004987;28;45284;-55
2021/01/30 11:30:22;;;;;;;11.68;6.47;;;23.80;44.40;;;;;;5059423;28;45366;-55
2021/01/30 11:33:11;;;;;;;11.10;6.93;;;23.80;44.60;;;;;;5050840;28;46015;-54
2021/01/30 11:35:42;;;;;;;11.02;6.75;;;23.70;45.00;;;;;;5026252;28;45490;-56
2021/01/30 11:38:13;;;;;;;12.65;7.03;;;23.80;44.70;;;;;;5034549;28;45550;-56
2021/01/30 11:40:39;;;;;;;12.63;7.35;;;23.80;44.50;;;;;;5050320;28;45472;-48
2021/01/30 11:43:05;;;;;;;12.07;6.90;;;23.80;45.10;;;;;;5030872;28;45453;-51
2021/01/30 11:45:31;;;;;;;11.88;6.57;;;23.80;45.10;;;;;;5042500;28;45361;-50
2021/01/30 11:47:56;;;;;;;11.77;6.75;;;23.80;45.30;;;;;;5042693;28;45270;-51
2021/01/30 11:50:22;;;;;;;10.35;6.20;;;23.90;45.40;;;;;;5016936;28;45935;-51
2021/01/30 11:52:48;;;;;;;10.98;6.10;;;23.90;45.40;;;;;;5036185;28;45411;-51
2021/01/30 11:55:14;;;;;;;9.50;5.93;;;23.90;45.30;;;;;;5032695;28;45416;-50
2021/01/30 11:57:39;;;;;;;10.73;6.78;;;23.90;45.20;;;;;;5038569;28;45558;-58
2021/01/30 12:00:09;;;;;;;10.88;5.90;;;24.10;44.90;;;;;;5036864;28;45727;-51
2021/01/30 12:02:39;;;;;;;8.95;6.78;;;24.10;44.90;;;;;;5035768;28;45373;-51
2021/01/30 12:05:06;;;;;;;9.60;6.68;;;24.10;44.70;;;;;;5030978;28;45496;-58
2021/01/30 12:07:32;;;;;;;11.00;6.80;;;24.10;44.70;;;;;;5036597;28;45345;-51
2021/01/30 12:09:58;;;;;;;9.45;6.00;;;24.10;44.70;;;;;;5038833;28;45293;-50
2021/01/30 12:12:23;;;;;;;10.35;6.10;;;24.10;44.70;;;;;;5028216;28;45392;-50
2021/01/30 12:14:49;;;;;;;10.93;6.30;;;24.10;44.50;;;;;;5033042;28;45435;-50
2021/01/30 12:17:18;;;;;;;10.50;6.03;;;24.10;44.40;;;;;;5034908;28;45461;-50
2021/01/30 12:19:44;;;;;;;10.32;6.78;;;24.10;44.40;;;;;;5041197;28;45522;-49
2021/01/30 12:22:10;;;;;;;10.15;6.43;;;24.00;44.60;;;;;;5036835;28;46379;-49
2021/01/30 12:24:35;;;;;;;9.05;6.07;;;24.10;44.40;;;;;;5043923;28;45546;-50
2021/01/30 12:27:01;;;;;;;8.65;5.78;;;24.20;44.40;;;;;;5027615;28;45589;-51
2021/01/30 12:29:27;;;;;;;10.07;6.28;;;24.10;44.30;;;;;;5039232;28;45507;-49
2021/01/30 12:31:53;;;;;;;8.70;5.70;;;24.00;44.70;;;;;;5034061;28;45424;-51
2021/01/30 12:34:18;;;;;;;9.10;5.43;;;23.90;44.80;;;;;;5034002;28;45310;-51
2021/01/30 12:36:44;;;;;;;10.00;5.65;;;23.80;44.80;;;;;;5030305;28;45377;-50
2021/01/30 12:39:10;;;;;;;9.52;5.80;;;23.70;44.80;;;;;;5027904;28;45592;-51
2021/01/30 12:41:35;;;;;;;11.52;6.15;;;23.70;44.70;;;;;;5039681;28;46249;-51
2021/01/30 12:44:01;;;;;;;8.27;4.97;;;23.70;44.70;;;;;;5033011;28;45363;-51
2021/01/30 12:46:44;;;;;;;11.93;6.97;;;23.70;44.60;;;;;;5046326;28;45613;-50
2021/01/30 12:49:10;;;;;;;9.93;5.25;;;23.70;44.60;;;;;;5040288;28;45461;-50
2021/01/30 12:51:35;;;;;;;9.35;5.85;;;23.70;44.50;;;;;;5034956;28;46349;-51
2021/01/30 12:54:01;;;;;;;14.68;5.97;;;23.70;44.40;;;;;;5043388;28;45361;-51
2021/01/30 12:56:26;;;;;;;8.82;5.60;;;23.70;44.40;;;;;;5038383;28;45401;-51
2021/01/30 12:58:52;;;;;;;8.40;5.07;;;23.60;44.30;;;;;;5032942;28;45639;-50
2021/01/30 13:01:18;;;;;;;9.73;5.30;;;23.60;44.20;;;;;;5031673;28;45478;-51
2021/01/30 13:03:44;;;;;;;7.95;4.95;;;23.70;44.20;;;;;;5042850;28;45514;-51
2021/01/30 13:06:10;;;;;;;8.88;5.30;;;23.70;44.20;;;;;;5029857;28;45543;-52
2021/01/30 13:08:36;;;;;;;9.05;5.22;;;23.70;44.00;;;;;;5040129;28;45447;-54